Latest Weather Observations for Archerfield

IDQ60801

Issued at 5:32 pm EST Saturday 22 September 2018 (issued every 10 minutes, with the page automatically refreshed every 10 minutes)

About weather observations | Map of weather stations | Latest weather observations for QLD | Other Formats
Station Details ID: 040211 Name: ARCHERFIELD AIRPORT Lat: -27.57 Lon: 153.01 Height: 12.5 m
Data from the previous 72 hours. | See also: Recent months at Archerfield
Date/Time
EST
Temp
°C
App
Temp
°C
Dew
Point
°C
Rel
Hum
%
Delta-T
°C
Wind Press
QNH
hPa
Press
MSL
hPa
Rain since
9am
mm
Dir  Spd
km/h
Gust
km/h
Spd
kts
Gust
kts
22/05:30pm 20.0 16.2 11.2 57 4.8 ENE 22 28 12 15 1024.3 1024.3 0.0
22/05:00pm 20.8 17.4 11.2 54 5.3 ENE 20 28 11 15 1023.9 1023.9 0.0
22/04:30pm 21.7 17.8 10.8 50 6.0 ENE 22 28 12 15 1023.7 1023.7 0.0
22/04:00pm 22.9 19.1 11.3 48 6.4 ENE 22 33 12 18 1023.3 1023.2 0.0
22/03:30pm 22.7 19.1 9.8 44 7.0 ENE 19 28 10 15 1023.1 1023.0 0.0
22/03:00pm 23.9 20.1 9.1 39 8.0 ESE 19 26 10 14 1023.1 1023.0 0.0
22/02:30pm 24.3 20.7 9.8 40 7.9 SE 19 26 10 14 1023.4 1023.3 0.0
22/02:00pm 24.6 22.3 10.5 41 7.8 ENE 13 20 7 11 1023.9 1023.9 0.0
22/01:30pm 23.4 19.4 8.3 38 8.0 ESE 19 28 10 15 1024.3 1024.3 0.0
22/01:00pm 23.7 20.6 8.9 39 7.9 E 15 24 8 13 1024.6 1024.6 0.0
22/12:30pm 24.4 22.8 10.3 41 7.8 S 9 20 5 11 1025.0 1025.0 0.0
22/12:00pm 23.5 21.5 10.2 43 7.3 ESE 11 24 6 13 1025.4 1025.4 0.0
22/11:30am 22.8 19.9 9.6 43 7.1 SE 15 24 8 13 1026.1 1026.1 0.0
22/11:00am 22.5 19.2 9.6 44 6.9 ESE 17 28 9 15 1026.7 1026.7 0.0
22/10:30am 22.3 19.5 10.1 46 6.6 ESE 15 22 8 12 1027.2 1027.2 0.0
22/10:00am 23.1 21.2 11.8 49 6.3 S 13 22 7 12 1027.6 1027.6 0.0
22/09:30am 21.9 20.3 11.6 52 5.7 SE 11 17 6 9 1027.9 1027.9 0.0
22/09:00am 20.5 17.8 10.3 52 5.5 S 15 28 8 15 1028.1 1028.1 0.0
22/08:30am 18.8 16.8 10.1 57 4.6 S 11 15 6 8 1028.1 1028.1 0.0
22/08:00am 17.2 15.2 10.3 64 3.6 S 11 17 6 9 1028.2 1028.2 0.0
22/07:30am 15.3 14.6 9.9 70 2.8 SW 4 7 2 4 1028.1 1028.1 0.0
22/07:00am 13.3 12.8 9.4 77 2.0 SW 2 7 1 4 1027.9 1027.9 0.0
22/06:30am 11.9 11.0 9.1 83 1.4 S 4 9 2 5 1027.6 1027.6 0.0
22/06:00am 10.2 8.3 7.6 84 1.2 SSW 7 9 4 5 1027.2 1027.2 0.0
22/05:30am 9.9 7.9 7.2 83 1.3 SSW 7 9 4 5 1026.9 1026.9 0.0
22/05:00am 10.4 8.2 7.8 84 1.2 SSW 9 9 5 5 1026.6 1026.6 0.0
22/04:30am 10.9 10.1 8.3 84 1.3 SSW 2 9 1 5 1026.3 1026.3 0.0
22/04:00am 10.0 9.4 7.4 84 1.2 CALM 0 0 0 0 1026.4 1026.4 0.0
22/03:30am 9.2 8.5 6.8 85 1.1 CALM 0 6 0 3 1026.3 1026.3 0.0
22/03:00am 10.7 9.8 7.6 81 1.5 SSW 2 7 1 4 1026.3 1026.3 0.0
22/02:30am 11.6 11.2 8.1 79 1.7 CALM 0 0 0 0 1026.3 1026.3 0.0
22/02:00am 11.5 9.8 8.5 82 1.5 WSW 7 11 4 6 1026.6 1026.6 0.0
22/01:30am 11.4 9.6 8.1 80 1.6 S 7 9 4 5 1026.6 1026.6 0.0
22/01:00am 11.3 9.7 6.4 72 2.3 SSE 4 7 2 4 1026.9 1026.9 0.0
22/12:30am 13.1 11.7 8.8 75 2.2 SSW 6 6 3 3 1027.2 1027.2 0.0
22/12:00am 11.2 10.0 7.9 80 1.6 NW 4 7 2 4 1027.4 1027.4 0.0
 
Date/Time
EST
Temp
°C
App
Temp
°C
Dew
Point
°C
Rel
Hum
%
Delta-T
°C
Wind Press
QNH
hPa
Press
MSL
hPa
Rain since
9am
mm
Dir  Spd
km/h
Gust
km/h
Spd
kts
Gust
kts
21/11:30pm 11.2 9.1 6.7 74 2.1 SSW 7 9 4 5 1027.4 1027.4 0.0
21/11:00pm 12.8 12.0 8.3 74 2.2 WSW 2 7 1 4 1027.5 1027.5 0.0
21/10:30pm 14.5 12.2 8.9 69 2.8 S 11 13 6 7 1027.3 1027.3 0.0
21/10:00pm 14.7 12.7 8.6 67 3.1 S 9 11 5 6 1027.3 1027.3 0.0
21/09:30pm 16.1 14.3 9.3 64 3.5 SSE 9 13 5 7 1027.1 1027.1 0.0
21/09:00pm 16.3 13.7 9.3 63 3.6 SSE 13 17 7 9 1026.9 1026.9 0.0
21/08:30pm 17.0 13.3 9.4 61 4.0 SE 19 24 10 13 1026.7 1026.7 0.0
21/08:00pm 17.2 13.2 9.1 59 4.2 SE 20 26 11 14 1026.4 1026.4 0.0
21/07:30pm 17.5 13.8 9.4 59 4.2 ESE 19 24 10 13 1026.2 1026.2 0.0
21/07:00pm 17.8 13.9 9.4 58 4.4 ESE 20 26 11 14 1025.7 1025.7 0.0
21/06:30pm 18.2 14.2 9.0 55 4.8 ESE 20 30 11 16 1025.3 1025.3 0.0
21/06:00pm 18.7 14.6 8.7 52 5.2 ESE 20 32 11 17 1024.9 1024.9 0.0
21/05:30pm 19.5 14.3 8.8 50 5.6 ESE 26 37 14 20 1024.4 1024.4 0.0
21/05:00pm 20.3 15.4 8.3 46 6.2 ESE 24 33 13 18 1024.1 1024.1 0.0
21/04:30pm 21.2 16.2 8.1 43 6.8 E 24 33 13 18 1023.7 1023.7 0.0
21/04:00pm 21.7 16.8 8.6 43 6.9 ESE 24 32 13 17 1023.4 1023.3 0.0
21/03:30pm 22.2 17.4 8.7 42 7.2 E 24 37 13 20 1023.1 1023.0 0.0
21/03:00pm 22.6 17.5 7.6 38 7.8 E 24 32 13 17 1023.0 1022.9 0.0
21/02:30pm 23.0 18.1 7.1 36 8.2 ESE 22 33 12 18 1022.9 1022.8 0.0
21/02:00pm 23.3 18.1 7.4 36 8.3 ESE 24 37 13 20 1023.0 1022.9 0.0
21/01:30pm 23.3 18.2 7.8 37 8.1 ESE 24 32 13 17 1023.2 1023.1 0.0
21/01:00pm 22.8 18.5 7.0 36 8.1 E 19 32 10 17 1023.5 1023.5 0.0
21/12:30pm 22.7 18.9 5.6 33 8.6 SE 15 22 8 12 1023.7 1023.7 0.0
21/12:00pm 22.7 17.9 5.6 33 8.6 SE 20 32 11 17 1024.1 1024.1 0.0
21/11:30am 22.4 16.9 5.8 34 8.4 ESE 24 33 13 18 1024.6 1024.6 0.0
21/11:00am 23.4 18.2 7.1 35 8.4 ESE 24 44 13 24 1024.9 1024.9 0.0
21/10:30am 22.3 16.8 5.7 34 8.3 SE 24 33 13 18 1025.2 1025.2 0.0
21/10:00am 21.6 15.3 5.9 36 7.8 SSE 28 37 15 20 1025.3 1025.3 0.0
21/09:30am 21.0 17.1 8.6 45 6.5 SSE 19 24 10 13 1025.5 1025.5 0.0
21/09:00am 20.1 15.9 8.1 46 6.2 SSE 20 30 11 16 1025.4 1025.4 0.0
21/08:30am 19.0 15.0 8.1 49 5.6 S 19 30 10 16 1025.4 1025.4 0.0
21/08:00am 18.0 13.9 8.0 52 5.1 S 19 30 10 16 1025.0 1025.0 0.0
21/07:30am 16.7 13.0 8.1 57 4.4 SSW 17 24 9 13 1024.7 1024.7 0.0
21/07:00am 15.1 11.8 8.1 63 3.5 SSW 15 20 8 11 1024.5 1024.5 0.0
21/06:30am 13.5 11.0 8.4 71 2.5 SW 11 15 6 8 1024.2 1024.2 0.0
21/06:00am 12.2 10.1 8.1 76 2.0 SW 9 11 5 6 1023.5 1023.5 0.0
21/05:30am 12.3 9.8 8.0 75 2.1 SW 11 15 6 8 1023.1 1023.0 0.0
21/05:00am 12.6 10.2 8.5 76 2.0 SSW 11 15 6 8 1022.7 1022.6 0.0
21/04:30am 12.6 10.5 8.3 75 2.1 SSW 9 13 5 7 1022.3 1022.2 0.0
21/04:00am 13.0 10.6 8.7 75 2.1 SW 11 15 6 8 1022.0 1021.9 0.0
21/03:30am 13.2 9.7 8.9 75 2.2 SSW 17 20 9 11 1021.7 1021.6 0.0
21/03:00am 12.8 10.1 8.9 77 2.0 SSW 13 17 7 9 1021.3 1021.2 0.0
21/02:30am 13.3 11.1 9.2 76 2.1 S 11 13 6 7 1021.6 1021.5 0.0
21/02:00am 13.9 11.7 9.3 74 2.3 S 11 17 6 9 1021.6 1021.5 0.0
21/01:30am 14.4 11.9 9.6 73 2.5 S 13 17 7 9 1021.5 1021.4 0.0
21/01:00am 15.0 11.4 9.8 71 2.7 S 19 24 10 13 1021.6 1021.5 0.0
21/12:30am 15.2 12.0 10.0 71 2.7 S 17 24 9 13 1021.4 1021.3 0.0
21/12:00am 15.9 12.9 10.7 71 2.8 SSE 17 22 9 12 1021.2 1021.1 0.0
 
Date/Time
EST
Temp
°C
App
Temp
°C
Dew
Point
°C
Rel
Hum
%
Delta-T
°C
Wind Press
QNH
hPa
Press
MSL
hPa
Rain since
9am
mm
Dir  Spd
km/h
Gust
km/h
Spd
kts
Gust
kts
20/11:30pm 15.7 13.2 10.9 73 2.6 SSE 15 19 8 10 1020.9 1020.8 0.0
20/11:00pm 16.6 14.5 11.3 71 2.9 SSE 13 17 7 9 1020.5 1020.4 0.0
20/10:30pm 16.5 15.4 13.0 80 1.9 S 11 24 6 13 1020.5 1020.4 0.0
20/10:00pm 15.8 16.3 12.7 82 1.7 ENE 2 7 1 4 1019.8 1019.7 0.0
20/09:30pm 15.7 16.7 13.2 85 1.4 CALM 0 0 0 0 1019.6 1019.5 0.0
20/09:00pm 15.9 16.5 11.9 77 2.2 CALM 0 7 0 4 1019.3 1019.2 0.0
20/08:30pm 17.6 18.3 13.3 76 2.4 S 2 7 1 4 1019.0 1018.9 0.0
20/08:00pm 18.3 19.1 13.8 75 2.6 SSE 2 9 1 5 1018.3 1018.2 0.0
20/07:30pm 18.5 18.9 13.8 74 2.7 SSE 4 6 2 3 1017.8 1017.7 0.0
20/07:00pm 18.4 17.9 13.7 74 2.7 E 9 13 5 7 1017.0 1016.9 0.0
20/06:30pm 19.1 18.5 13.5 70 3.2 E 9 13 5 7 1016.2 1016.1 0.0
20/06:00pm 20.1 18.5 14.0 68 3.5 ESE 15 20 8 11 1015.5 1015.4 0.0
20/05:30pm 20.7 19.2 14.1 66 3.8 E 15 22 8 12 1014.7 1014.6 0.0
20/05:00pm 21.3 19.0 14.0 63 4.2 E 19 22 10 12 1013.9 1013.8 0.0
20/04:30pm 22.6 20.1 13.4 56 5.3 E 19 24 10 13 1013.2 1013.1 0.0
20/04:00pm 23.7 21.2 13.6 53 5.9 E 19 26 10 14 1012.6 1012.5 0.0
20/03:30pm 24.5 22.0 13.4 50 6.5 E 19 24 10 13 1012.2 1012.1 0.0
20/03:00pm 23.5 20.8 13.4 53 5.9 E 20 24 11 13 1012.0 1011.9 0.0
20/02:30pm 23.8 20.8 13.6 52 5.9 ENE 22 30 12 16 1011.9 1011.8 0.0
20/02:00pm 24.4 21.1 13.9 52 6.2 ENE 24 32 13 17 1011.9 1011.8 0.0
20/01:30pm 26.2 23.9 14.0 47 7.2 SE 19 28 10 15 1012.0 1011.9 0.0
20/01:00pm 28.3 24.1 3.9 21 12.3 W 15 26 8 14 1011.9 1011.8 0.0
20/12:30pm 29.1 26.1 5.9 23 12.2 SSE 11 20 6 11 1012.1 1012.0 0.0
20/12:00pm 28.1 25.7 6.8 26 11.3 SSE 9 19 5 10 1012.8 1012.7 0.0
20/11:30am 26.1 23.7 7.2 30 10.0 S 9 15 5 8 1013.4 1013.3 0.0
20/11:00am 26.9 24.2 10.2 35 9.3 S 15 20 8 11 1013.6 1013.5 0.0
20/10:30am 26.9 24.9 11.4 38 8.8 SSW 13 22 7 12 1013.4 1013.3 0.0
20/10:00am 26.2 23.0 10.0 36 9.0 WSW 17 28 9 15 1013.7 1013.6 0.0
20/09:30am 25.3 22.5 11.5 42 7.8 WSW 17 24 9 13 1014.0 1013.9 0.0
20/09:00am 23.7 22.1 11.7 47 6.8 WSW 11 19 6 10 1013.8 1013.7 0.0
20/08:30am 22.0 20.9 12.0 53 5.6 WSW 9 15 5 8 1013.7 1013.6 0.0
20/08:00am 20.3 20.1 11.8 58 4.7 WSW 4 9 2 5 1013.4 1013.3 0.0
20/07:30am 18.5 18.4 13.4 72 2.9 WSW 6 7 3 4 1013.6 1013.5 0.0
20/07:00am 16.4 16.2 13.7 84 1.5 SSW 7 11 4 6 1013.6 1013.5 0.0
20/06:30am 15.4 15.3 13.8 90 0.9 S 7 9 4 5 1013.3 1013.2 0.0
20/06:00am 14.1 12.9 12.7 91 0.8 S 11 11 6 6 1013.2 1013.1 0.0
20/05:30am 13.7 13.2 11.9 89 1.0 SW 6 9 3 5 1012.9 1012.8 0.0
20/05:00am 14.4 14.5 12.8 90 0.9 NW 4 7 2 4 1012.7 1012.6 0.0
20/04:30am 14.4 14.1 12.6 89 1.0 WNW 6 9 3 5 1012.4 1012.3 0.0
20/04:00am 14.1 13.7 12.3 89 1.0 NNW 6 7 3 4 1012.0 1011.9 0.0
20/03:30am 13.4 12.4 11.1 86 1.2 NE 7 7 4 4 1012.2 1012.1 0.0
20/03:00am 15.4 15.0 13.1 86 1.3 SSW 7 9 4 5 1012.6 1012.5 0.0
20/02:30am 16.4 17.1 13.5 83 1.6 SW 2 6 1 3 1012.3 1012.2 0.0
20/02:00am 15.9 16.5 13.0 83 1.6 WSW 2 7 1 4 1012.5 1012.4 0.0
20/01:30am 16.7 17.8 13.4 81 1.9 CALM 0 0 0 0 1012.5 1012.4 0.0
20/01:00am 15.7 14.8 12.5 81 1.8 N 9 9 5 5 1012.6 1012.5 0.0
20/12:30am 16.8 16.6 13.1 79 2.1 NNE 6 7 3 4 1012.8 1012.7 0.0
20/12:00am 16.5 16.0 12.8 79 2.1 NNW 7 11 4 6 1013.1 1013.0 0.0
 
Date/Time
EST
Temp
°C
App
Temp
°C
Dew
Point
°C
Rel
Hum
%
Delta-T
°C
Wind Press
QNH
hPa
Press
MSL
hPa
Rain since
9am
mm
Dir  Spd
km/h
Gust
km/h
Spd
kts
Gust
kts
19/11:30pm 17.3 16.9 13.0 76 2.4 N 7 9 4 5 1013.3 1013.2 0.0
19/11:00pm 17.9 15.9 13.8 77 2.3 NE 17 20 9 11 1013.6 1013.5 0.0
19/10:30pm 17.6 16.9 13.1 75 2.5 NNE 9 13 5 7 1014.0 1013.9 0.0
19/10:00pm 18.3 17.7 13.6 74 2.7 N 9 15 5 8 1013.9 1013.8 0.0
19/09:30pm 19.1 16.7 14.4 74 2.7 NNE 20 30 11 16 1013.7 1013.6 0.0
19/09:00pm 19.7 17.0 14.7 73 2.9 NNE 22 30 12 16 1013.9 1013.8 0.0
19/08:30pm 19.8 17.5 14.6 72 3.0 NNE 20 28 11 15 1014.0 1013.9 0.0
19/08:00pm 19.8 16.7 14.4 71 3.1 NNE 24 32 13 17 1013.7 1013.6 0.0
19/07:30pm 19.9 16.7 14.3 70 3.2 NNE 24 33 13 18 1013.6 1013.5 0.0
19/07:00pm 20.2 16.6 14.3 69 3.4 NNE 26 37 14 20 1013.4 1013.3 0.0
19/06:30pm 20.3 17.5 14.2 68 3.5 NNE 22 30 12 16 1013.3 1013.2 0.0
19/06:00pm 20.6 17.2 13.8 65 3.9 NNE 24 33 13 18 1013.1 1013.0 0.0

Other Formats:

Comma delimited format used in spreadsheet applications
http://www.bom.gov.au/fwo/IDQ60801/IDQ60801.94575.axf

JavaScript Object Notation format (JSON) in row-major order
http://www.bom.gov.au/fwo/IDQ60801/IDQ60801.94575.json